sensor_id;sensor_type;location;lat;lon;timestamp;pressure;altitude;pressure_sealevel;temperature;humidity
73242;BME280;65659;49.234;-2.094;2023-03-01T00:00:26;101773.17;;;24.04;21.63
73242;BME280;65659;49.234;-2.094;2023-03-01T00:02:52;101769.18;;;24.16;21.52
73242;BME280;65659;49.234;-2.094;2023-03-01T00:05:18;101774.37;;;24.12;21.55
73242;BME280;65659;49.234;-2.094;2023-03-01T00:07:43;101772.96;;;24.07;21.54
73242;BME280;65659;49.234;-2.094;2023-03-01T00:10:10;101773.55;;;24.07;21.51
73242;BME280;65659;49.234;-2.094;2023-03-01T00:12:35;101778.15;;;23.98;21.56
73242;BME280;65659;49.234;-2.094;2023-03-01T00:15:00;101782.93;;;23.96;21.57
73242;BME280;65659;49.234;-2.094;2023-03-01T00:17:28;101782.08;;;23.93;21.56
73242;BME280;65659;49.234;-2.094;2023-03-01T00:19:52;101786.00;;;23.98;21.56
73242;BME280;65659;49.234;-2.094;2023-03-01T00:22:18;101790.61;;;23.95;21.50
73242;BME280;65659;49.234;-2.094;2023-03-01T00:24:44;101796.37;;;23.96;21.52
73242;BME280;65659;49.234;-2.094;2023-03-01T00:27:09;101794.43;;;23.96;21.47
73242;BME280;65659;49.234;-2.094;2023-03-01T00:29:35;101793.06;;;23.95;21.53
73242;BME280;65659;49.234;-2.094;2023-03-01T00:32:01;101795.01;;;23.92;21.55
73242;BME280;65659;49.234;-2.094;2023-03-01T00:34:27;101794.39;;;23.94;21.46
73242;BME280;65659;49.234;-2.094;2023-03-01T00:36:52;101794.98;;;24.18;21.48
73242;BME280;65659;49.234;-2.094;2023-03-01T00:39:18;101795.51;;;23.91;21.46
73242;BME280;65659;49.234;-2.094;2023-03-01T00:41:44;101793.98;;;23.87;21.50
73242;BME280;65659;49.234;-2.094;2023-03-01T00:44:10;101793.13;;;23.88;21.42
73242;BME280;65659;49.234;-2.094;2023-03-01T00:46:35;101793.14;;;23.92;21.37
73242;BME280;65659;49.234;-2.094;2023-03-01T00:49:01;101796.73;;;23.95;21.36
73242;BME280;65659;49.234;-2.094;2023-03-01T00:51:28;101791.57;;;23.93;21.35
73242;BME280;65659;49.234;-2.094;2023-03-01T00:53:54;101794.07;;;24.12;21.35
73242;BME280;65659;49.234;-2.094;2023-03-01T00:56:19;101793.27;;;23.90;21.35
73242;BME280;65659;49.234;-2.094;2023-03-01T00:58:44;101794.62;;;23.91;21.33
73242;BME280;65659;49.234;-2.094;2023-03-01T01:01:12;101795.44;;;23.92;21.34
73242;BME280;65659;49.234;-2.094;2023-03-01T01:03:36;101794.11;;;23.96;21.27
73242;BME280;65659;49.234;-2.094;2023-03-01T01:06:01;101789.71;;;23.98;21.23
73242;BME280;65659;49.234;-2.094;2023-03-01T01:08:27;101793.52;;;23.95;21.25
73242;BME280;65659;49.234;-2.094;2023-03-01T01:10:53;101798.81;;;23.93;21.23
73242;BME280;65659;49.234;-2.094;2023-03-01T01:13:19;101800.48;;;24.14;21.20
73242;BME280;65659;49.234;-2.094;2023-03-01T01:15:44;101799.22;;;23.88;21.20
73242;BME280;65659;49.234;-2.094;2023-03-01T01:18:10;101799.83;;;23.88;21.26
73242;BME280;65659;49.234;-2.094;2023-03-01T01:20:36;101803.64;;;23.86;21.25
73242;BME280;65659;49.234;-2.094;2023-03-01T01:23:02;101805.23;;;23.85;21.18
73242;BME280;65659;49.234;-2.094;2023-03-01T01:25:27;101804.79;;;23.84;21.14
73242;BME280;65659;49.234;-2.094;2023-03-01T01:27:54;101808.11;;;23.81;21.18
73242;BME280;65659;49.234;-2.094;2023-03-01T01:30:19;101808.78;;;23.80;21.17
73242;BME280;65659;49.234;-2.094;2023-03-01T01:32:45;101808.72;;;24.31;21.18
73242;BME280;65659;49.234;-2.094;2023-03-01T01:35:10;101805.34;;;24.10;21.08
73242;BME280;65659;49.234;-2.094;2023-03-01T01:37:36;101803.59;;;23.87;21.03
73242;BME280;65659;49.234;-2.094;2023-03-01T01:40:03;101798.76;;;23.89;21.03
73242;BME280;65659;49.234;-2.094;2023-03-01T01:42:28;101795.13;;;23.90;20.94
73242;BME280;65659;49.234;-2.094;2023-03-01T01:47:20;101794.12;;;23.90;20.92
73242;BME280;65659;49.234;-2.094;2023-03-01T01:49:47;101793.80;;;23.91;20.96
73242;BME280;65659;49.234;-2.094;2023-03-01T01:52:16;101789.23;;;24.15;20.95
73242;BME280;65659;49.234;-2.094;2023-03-01T01:54:41;101788.98;;;23.90;20.94
73242;BME280;65659;49.234;-2.094;2023-03-01T01:57:06;101786.90;;;23.96;20.92
73242;BME280;65659;49.234;-2.094;2023-03-01T01:59:29;101784.80;;;23.98;20.87
73242;BME280;65659;49.234;-2.094;2023-03-01T02:01:54;101784.88;;;24.04;20.79
73242;BME280;65659;49.234;-2.094;2023-03-01T02:04:20;101783.18;;;24.04;20.75
73242;BME280;65659;49.234;-2.094;2023-03-01T02:06:51;101781.04;;;24.18;20.82
73242;BME280;65659;49.234;-2.094;2023-03-01T02:09:13;101786.31;;;24.10;20.88
73242;BME280;65659;49.234;-2.094;2023-03-01T02:11:37;101780.59;;;23.87;20.85
73242;BME280;65659;49.234;-2.094;2023-03-01T02:14:03;101770.18;;;23.91;20.81
73242;BME280;65659;49.234;-2.094;2023-03-01T02:16:28;101769.44;;;23.91;20.78
73242;BME280;65659;49.234;-2.094;2023-03-01T02:18:54;101770.54;;;23.86;20.82
73242;BME280;65659;49.234;-2.094;2023-03-01T02:21:33;101768.86;;;23.86;20.80
73242;BME280;65659;49.234;-2.094;2023-03-01T02:23:46;101768.44;;;24.14;20.72
73242;BME280;65659;49.234;-2.094;2023-03-01T02:26:18;101764.98;;;23.92;20.70
73242;BME280;65659;49.234;-2.094;2023-03-01T02:28:38;101763.40;;;23.89;20.69
73242;BME280;65659;49.234;-2.094;2023-03-01T02:31:05;101759.60;;;23.88;20.68
73242;BME280;65659;49.234;-2.094;2023-03-01T02:33:30;101757.89;;;24.11;20.66
73242;BME280;65659;49.234;-2.094;2023-03-01T02:35:55;101756.11;;;24.11;20.69
73242;BME280;65659;49.234;-2.094;2023-03-01T02:38:21;101753.49;;;23.88;20.61
73242;BME280;65659;49.234;-2.094;2023-03-01T02:40:46;101754.30;;;24.13;20.60
73242;BME280;65659;49.234;-2.094;2023-03-01T02:43:12;101754.22;;;23.92;20.56
73242;BME280;65659;49.234;-2.094;2023-03-01T02:45:37;101755.38;;;23.93;20.53
73242;BME280;65659;49.234;-2.094;2023-03-01T02:48:03;101753.58;;;23.91;20.55
73242;BME280;65659;49.234;-2.094;2023-03-01T02:50:42;101752.50;;;23.92;20.48
73242;BME280;65659;49.234;-2.094;2023-03-01T02:52:59;101750.72;;;23.90;20.54
73242;BME280;65659;49.234;-2.094;2023-03-01T02:55:20;101750.52;;;23.88;20.53
73242;BME280;65659;49.234;-2.094;2023-03-01T02:57:48;101751.44;;;24.39;20.49
73242;BME280;65659;49.234;-2.094;2023-03-01T03:00:14;101746.54;;;23.97;20.44
73242;BME280;65659;49.234;-2.094;2023-03-01T03:02:37;101744.79;;;24.18;20.42
73242;BME280;65659;49.234;-2.094;2023-03-01T03:05:06;101742.24;;;23.91;20.46
73242;BME280;65659;49.234;-2.094;2023-03-01T03:07:29;101741.88;;;24.16;20.47
73242;BME280;65659;49.234;-2.094;2023-03-01T03:09:55;101741.56;;;23.95;20.41
73242;BME280;65659;49.234;-2.094;2023-03-01T03:12:20;101739.71;;;23.94;20.42
73242;BME280;65659;49.234;-2.094;2023-03-01T03:14:46;101737.04;;;23.99;20.34
73242;BME280;65659;49.234;-2.094;2023-03-01T03:17:12;101736.19;;;23.96;20.37
73242;BME280;65659;49.234;-2.094;2023-03-01T03:19:38;101736.46;;;23.96;20.36
73242;BME280;65659;49.234;-2.094;2023-03-01T03:22:03;101731.24;;;24.13;20.42
73242;BME280;65659;49.234;-2.094;2023-03-01T03:24:29;101728.59;;;23.88;20.40
73242;BME280;65659;49.234;-2.094;2023-03-01T03:26:55;101725.25;;;23.89;20.35
73242;BME280;65659;49.234;-2.094;2023-03-01T03:29:21;101727.64;;;23.90;20.36
73242;BME280;65659;49.234;-2.094;2023-03-01T03:31:46;101723.31;;;23.91;20.35
73242;BME280;65659;49.234;-2.094;2023-03-01T03:34:12;101720.34;;;23.88;20.33
73242;BME280;65659;49.234;-2.094;2023-03-01T03:36:38;101717.15;;;23.90;20.36
73242;BME280;65659;49.234;-2.094;2023-03-01T03:39:04;101714.34;;;23.89;20.31
73242;BME280;65659;49.234;-2.094;2023-03-01T03:41:29;101714.30;;;23.81;20.42
73242;BME280;65659;49.234;-2.094;2023-03-01T03:43:55;101712.53;;;24.06;20.36
73242;BME280;65659;49.234;-2.094;2023-03-01T03:46:21;101711.75;;;24.04;20.39
73242;BME280;65659;49.234;-2.094;2023-03-01T03:48:47;101705.42;;;24.27;20.37
73242;BME280;65659;49.234;-2.094;2023-03-01T03:51:13;101708.13;;;23.77;20.38
73242;BME280;65659;49.234;-2.094;2023-03-01T03:53:40;101704.14;;;23.79;20.41
73242;BME280;65659;49.234;-2.094;2023-03-01T03:56:05;101702.28;;;23.78;20.36
73242;BME280;65659;49.234;-2.094;2023-03-01T03:58:30;101701.99;;;23.80;20.38
73242;BME280;65659;49.234;-2.094;2023-03-01T04:00:57;101699.02;;;23.82;20.26
73242;BME280;65659;49.234;-2.094;2023-03-01T04:03:22;101699.46;;;23.77;20.32
73242;BME280;65659;49.234;-2.094;2023-03-01T04:05:47;101698.97;;;23.82;20.25
73242;BME280;65659;49.234;-2.094;2023-03-01T04:08:13;101700.77;;;23.80;20.33
73242;BME280;65659;49.234;-2.094;2023-03-01T04:10:40;101697.49;;;23.81;20.33
73242;BME280;65659;49.234;-2.094;2023-03-01T04:13:04;101699.54;;;23.84;20.21
73242;BME280;65659;49.234;-2.094;2023-03-01T04:15:31;101696.18;;;24.31;20.26
73242;BME280;65659;49.234;-2.094;2023-03-01T04:17:56;101695.29;;;23.62;20.26
73242;BME280;65659;49.234;-2.094;2023-03-01T04:20:24;101695.73;;;23.92;20.19
73242;BME280;65659;49.234;-2.094;2023-03-01T04:22:47;101694.10;;;23.97;20.17
73242;BME280;65659;49.234;-2.094;2023-03-01T04:25:13;101696.95;;;23.92;20.18
73242;BME280;65659;49.234;-2.094;2023-03-01T04:27:39;101693.61;;;23.94;20.20
73242;BME280;65659;49.234;-2.094;2023-03-01T04:30:06;101692.30;;;23.91;20.17
73242;BME280;65659;49.234;-2.094;2023-03-01T04:32:30;101693.20;;;23.92;20.23
73242;BME280;65659;49.234;-2.094;2023-03-01T04:34:56;101690.44;;;23.94;20.16
73242;BME280;65659;49.234;-2.094;2023-03-01T04:37:22;101687.44;;;24.13;20.22
73242;BME280;65659;49.234;-2.094;2023-03-01T04:39:47;101680.27;;;24.12;20.19
73242;BME280;65659;49.234;-2.094;2023-03-01T04:42:13;101677.95;;;23.87;20.22
73242;BME280;65659;49.234;-2.094;2023-03-01T04:44:39;101675.96;;;23.81;20.25
73242;BME280;65659;49.234;-2.094;2023-03-01T04:47:05;101675.07;;;23.81;20.23
73242;BME280;65659;49.234;-2.094;2023-03-01T04:49:30;101678.10;;;23.80;20.25
73242;BME280;65659;49.234;-2.094;2023-03-01T04:51:56;101674.39;;;24.09;20.18
73242;BME280;65659;49.234;-2.094;2023-03-01T04:54:22;101678.32;;;24.07;20.18
73242;BME280;65659;49.234;-2.094;2023-03-01T04:56:48;101676.91;;;23.82;20.16
73242;BME280;65659;49.234;-2.094;2023-03-01T04:59:13;101674.15;;;23.77;20.30
73242;BME280;65659;49.234;-2.094;2023-03-01T05:01:39;101671.26;;;23.76;20.32
73242;BME280;65659;49.234;-2.094;2023-03-01T05:04:05;101661.06;;;23.77;20.23
73242;BME280;65659;49.234;-2.094;2023-03-01T05:06:31;101653.90;;;23.73;20.34
73242;BME280;65659;49.234;-2.094;2023-03-01T05:08:56;101653.62;;;23.76;20.29
73242;BME280;65659;49.234;-2.094;2023-03-01T05:11:22;101651.59;;;24.09;20.16
73242;BME280;65659;49.234;-2.094;2023-03-01T05:13:48;101650.79;;;24.08;20.16
73242;BME280;65659;49.234;-2.094;2023-03-01T05:16:14;101647.98;;;23.81;20.14
73242;BME280;65659;49.234;-2.094;2023-03-01T05:18:40;101648.17;;;23.78;20.19
73242;BME280;65659;49.234;-2.094;2023-03-01T05:21:07;101652.47;;;23.77;20.25
73242;BME280;65659;49.234;-2.094;2023-03-01T05:23:31;101652.10;;;23.79;20.20
73242;BME280;65659;49.234;-2.094;2023-03-01T05:25:58;101653.34;;;23.78;20.21
73242;BME280;65659;49.234;-2.094;2023-03-01T05:28:22;101653.76;;;23.77;20.22
73242;BME280;65659;49.234;-2.094;2023-03-01T05:30:48;101651.08;;;24.01;20.20
73242;BME280;65659;49.234;-2.094;2023-03-01T05:33:14;101652.76;;;23.98;20.24
73242;BME280;65659;49.234;-2.094;2023-03-01T05:35:40;101652.71;;;23.74;20.30
73242;BME280;65659;49.234;-2.094;2023-03-01T05:38:05;101655.10;;;23.97;20.30
73242;BME280;65659;49.234;-2.094;2023-03-01T05:40:33;101654.77;;;23.72;20.33
73242;BME280;65659;49.234;-2.094;2023-03-01T05:42:57;101660.93;;;23.77;20.30
73242;BME280;65659;49.234;-2.094;2023-03-01T05:45:24;101654.85;;;23.76;20.32
73242;BME280;65659;49.234;-2.094;2023-03-01T05:47:49;101653.56;;;23.97;20.24
73242;BME280;65659;49.234;-2.094;2023-03-01T05:50:16;101648.88;;;23.71;20.34
73242;BME280;65659;49.234;-2.094;2023-03-01T05:52:40;101643.54;;;23.71;20.36
73242;BME280;65659;49.234;-2.094;2023-03-01T05:55:07;101643.62;;;23.70;20.36
73242;BME280;65659;49.234;-2.094;2023-03-01T05:57:31;101637.43;;;23.75;20.31
73242;BME280;65659;49.234;-2.094;2023-03-01T05:59:57;101638.15;;;23.71;20.27
73242;BME280;65659;49.234;-2.094;2023-03-01T06:02:23;101634.07;;;23.69;20.28
73242;BME280;65659;49.234;-2.094;2023-03-01T06:04:49;101638.78;;;24.15;20.35
73242;BME280;65659;49.234;-2.094;2023-03-01T06:07:14;101638.52;;;23.65;20.31
73242;BME280;65659;49.234;-2.094;2023-03-01T06:09:40;101639.46;;;24.09;20.36
73242;BME280;65659;49.234;-2.094;2023-03-01T06:12:06;101641.28;;;23.59;20.34
73242;BME280;65659;49.234;-2.094;2023-03-01T06:14:32;101643.50;;;23.91;20.31
73242;BME280;65659;49.234;-2.094;2023-03-01T06:16:58;101640.27;;;23.92;20.32
73242;BME280;65659;49.234;-2.094;2023-03-01T06:19:23;101640.50;;;23.65;20.31
73242;BME280;65659;49.234;-2.094;2023-03-01T06:21:49;101642.70;;;23.65;20.31
73242;BME280;65659;49.234;-2.094;2023-03-01T06:24:15;101642.33;;;23.69;20.28
73242;BME280;65659;49.234;-2.094;2023-03-01T06:26:40;101636.62;;;23.72;20.24
73242;BME280;65659;49.234;-2.094;2023-03-01T06:29:06;101641.66;;;23.92;20.29
73242;BME280;65659;49.234;-2.094;2023-03-01T06:31:32;101639.61;;;23.69;20.27
73242;BME280;65659;49.234;-2.094;2023-03-01T06:33:57;101640.23;;;23.69;20.26
73242;BME280;65659;49.234;-2.094;2023-03-01T06:36:23;101643.39;;;23.89;20.27
73242;BME280;65659;49.234;-2.094;2023-03-01T06:38:49;101643.15;;;23.90;20.35
73242;BME280;65659;49.234;-2.094;2023-03-01T06:41:15;101644.35;;;23.89;20.33
73242;BME280;65659;49.234;-2.094;2023-03-01T06:43:40;101643.95;;;23.90;20.32
73242;BME280;65659;49.234;-2.094;2023-03-01T06:46:06;101642.79;;;23.88;20.35
73242;BME280;65659;49.234;-2.094;2023-03-01T06:48:32;101644.80;;;23.66;20.35
73242;BME280;65659;49.234;-2.094;2023-03-01T06:50:58;101646.66;;;23.86;20.39
73242;BME280;65659;49.234;-2.094;2023-03-01T06:53:24;101646.38;;;23.89;20.36
73242;BME280;65659;49.234;-2.094;2023-03-01T06:55:54;101644.01;;;23.66;20.36
73242;BME280;65659;49.234;-2.094;2023-03-01T06:58:15;101646.95;;;23.70;20.32
73242;BME280;65659;49.234;-2.094;2023-03-01T07:00:41;101647.45;;;23.48;20.29
73242;BME280;65659;49.234;-2.094;2023-03-01T07:03:07;101645.87;;;23.80;20.22
73242;BME280;65659;49.234;-2.094;2023-03-01T07:05:33;101643.76;;;23.82;20.22
73242;BME280;65659;49.234;-2.094;2023-03-01T07:07:58;101643.93;;;23.78;20.28
73242;BME280;65659;49.234;-2.094;2023-03-01T07:10:24;101645.86;;;23.78;20.26
73242;BME280;65659;49.234;-2.094;2023-03-01T07:12:50;101642.10;;;23.73;20.30
73242;BME280;65659;49.234;-2.094;2023-03-01T07:15:16;101640.37;;;23.80;20.24
73242;BME280;65659;49.234;-2.094;2023-03-01T07:17:41;101639.74;;;23.84;20.22
73242;BME280;65659;49.234;-2.094;2023-03-01T07:20:08;101637.23;;;23.85;20.22
73242;BME280;65659;49.234;-2.094;2023-03-01T07:22:33;101636.03;;;23.89;20.14
73242;BME280;65659;49.234;-2.094;2023-03-01T07:24:58;101632.18;;;23.89;20.18
73242;BME280;65659;49.234;-2.094;2023-03-01T07:27:24;101633.34;;;23.68;20.16
73242;BME280;65659;49.234;-2.094;2023-03-01T07:29:50;101635.26;;;23.41;20.16
73242;BME280;65659;49.234;-2.094;2023-03-01T07:32:15;101635.55;;;24.01;20.10
73242;BME280;65659;49.234;-2.094;2023-03-01T07:34:41;101635.86;;;23.83;20.04
73242;BME280;65659;49.234;-2.094;2023-03-01T07:37:07;101639.32;;;23.58;20.05
73242;BME280;65659;49.234;-2.094;2023-03-01T07:39:33;101634.41;;;23.81;20.11
73242;BME280;65659;49.234;-2.094;2023-03-01T07:41:59;101640.24;;;23.62;20.08
73242;BME280;65659;49.234;-2.094;2023-03-01T07:44:24;101636.60;;;23.87;19.90
73242;BME280;65659;49.234;-2.094;2023-03-01T07:46:50;101638.19;;;23.88;19.96
73242;BME280;65659;49.234;-2.094;2023-03-01T07:49:16;101637.57;;;23.68;19.96
73242;BME280;65659;49.234;-2.094;2023-03-01T07:51:43;101641.12;;;23.46;19.94
73242;BME280;65659;49.234;-2.094;2023-03-01T07:54:07;101642.50;;;23.60;19.86
73242;BME280;65659;49.234;-2.094;2023-03-01T07:56:33;101639.43;;;23.45;19.59
73242;BME280;65659;49.234;-2.094;2023-03-01T07:59:00;101635.57;;;23.77;19.60
73242;BME280;65659;49.234;-2.094;2023-03-01T08:01:25;101639.46;;;23.25;19.86
73242;BME280;65659;49.234;-2.094;2023-03-01T08:03:51;101630.87;;;23.49;19.57
73242;BME280;65659;49.234;-2.094;2023-03-01T08:06:17;101633.30;;;23.65;19.45
73242;BME280;65659;49.234;-2.094;2023-03-01T08:08:42;101635.32;;;23.95;19.40
73242;BME280;65659;49.234;-2.094;2023-03-01T08:11:11;101632.14;;;23.66;19.42
73242;BME280;65659;49.234;-2.094;2023-03-01T08:13:34;101636.17;;;23.65;19.26
73242;BME280;65659;49.234;-2.094;2023-03-01T08:16:01;101635.47;;;23.96;19.19
73242;BME280;65659;49.234;-2.094;2023-03-01T08:18:25;101633.47;;;23.75;19.29
73242;BME280;65659;49.234;-2.094;2023-03-01T08:20:51;101629.55;;;23.68;19.19
73242;BME280;65659;49.234;-2.094;2023-03-01T08:23:17;101631.69;;;23.90;19.19
73242;BME280;65659;49.234;-2.094;2023-03-01T08:25:42;101635.17;;;23.89;19.13
73242;BME280;65659;49.234;-2.094;2023-03-01T08:28:08;101635.98;;;23.46;19.22
73242;BME280;65659;49.234;-2.094;2023-03-01T08:30:34;101634.62;;;23.67;19.10
73242;BME280;65659;49.234;-2.094;2023-03-01T08:33:00;101632.54;;;23.79;19.01
73242;BME280;65659;49.234;-2.094;2023-03-01T08:35:26;101625.38;;;23.88;18.82
73242;BME280;65659;49.234;-2.094;2023-03-01T08:37:51;101622.08;;;24.34;18.71
73242;BME280;65659;49.234;-2.094;2023-03-01T08:40:18;101626.03;;;23.94;18.72
73242;BME280;65659;49.234;-2.094;2023-03-01T08:42:43;101628.28;;;24.03;18.80
73242;BME280;65659;49.234;-2.094;2023-03-01T08:45:10;101624.10;;;23.95;18.85
73242;BME280;65659;49.234;-2.094;2023-03-01T08:47:34;101624.27;;;24.36;18.74
73242;BME280;65659;49.234;-2.094;2023-03-01T08:50:00;101623.85;;;23.97;18.70
73242;BME280;65659;49.234;-2.094;2023-03-01T08:52:26;101631.10;;;24.30;18.71
73242;BME280;65659;49.234;-2.094;2023-03-01T08:54:52;101628.44;;;24.51;18.79
73242;BME280;65659;49.234;-2.094;2023-03-01T08:57:18;101628.89;;;24.32;18.75
73242;BME280;65659;49.234;-2.094;2023-03-01T08:59:43;101627.68;;;24.58;18.77
73242;BME280;65659;49.234;-2.094;2023-03-01T09:02:13;101626.94;;;24.59;18.96
73242;BME280;65659;49.234;-2.094;2023-03-01T09:04:35;101631.94;;;24.62;18.98
73242;BME280;65659;49.234;-2.094;2023-03-01T09:07:01;101632.41;;;24.37;19.11
73242;BME280;65659;49.234;-2.094;2023-03-01T09:09:26;101629.90;;;24.44;18.94
73242;BME280;65659;49.234;-2.094;2023-03-01T09:11:52;101631.67;;;24.66;19.15
73242;BME280;65659;49.234;-2.094;2023-03-01T09:14:18;101629.53;;;24.50;19.01
73242;BME280;65659;49.234;-2.094;2023-03-01T09:16:44;101633.66;;;24.47;19.06
73242;BME280;65659;49.234;-2.094;2023-03-01T09:19:09;101630.70;;;24.53;18.87
73242;BME280;65659;49.234;-2.094;2023-03-01T09:21:35;101628.62;;;24.20;19.37
73242;BME280;65659;49.234;-2.094;2023-03-01T09:24:01;101629.87;;;24.81;19.26
73242;BME280;65659;49.234;-2.094;2023-03-01T09:26:27;101628.51;;;24.56;19.06
73242;BME280;65659;49.234;-2.094;2023-03-01T09:28:55;101621.68;;;24.33;19.39
73242;BME280;65659;49.234;-2.094;2023-03-01T09:31:20;101622.33;;;24.68;19.55
73242;BME280;65659;49.234;-2.094;2023-03-01T09:33:46;101610.89;;;24.49;19.46
73242;BME280;65659;49.234;-2.094;2023-03-01T09:36:13;101607.09;;;24.69;19.29
73242;BME280;65659;49.234;-2.094;2023-03-01T09:38:35;101606.99;;;24.49;19.22
73242;BME280;65659;49.234;-2.094;2023-03-01T09:41:02;101601.26;;;24.48;19.12
73242;BME280;65659;49.234;-2.094;2023-03-01T09:43:30;101600.73;;;24.51;19.06
73242;BME280;65659;49.234;-2.094;2023-03-01T09:45:55;101598.31;;;24.99;19.06
73242;BME280;65659;49.234;-2.094;2023-03-01T09:48:20;101598.99;;;24.70;19.04
73242;BME280;65659;49.234;-2.094;2023-03-01T09:50:45;101598.70;;;24.70;19.00
73242;BME280;65659;49.234;-2.094;2023-03-01T09:53:13;101600.10;;;24.86;19.05
73242;BME280;65659;49.234;-2.094;2023-03-01T09:55:42;101602.87;;;24.39;18.99
73242;BME280;65659;49.234;-2.094;2023-03-01T10:00:35;101604.82;;;24.67;18.88
73242;BME280;65659;49.234;-2.094;2023-03-01T10:02:58;101603.67;;;24.67;18.87
73242;BME280;65659;49.234;-2.094;2023-03-01T10:07:48;101607.38;;;24.46;18.81
73242;BME280;65659;49.234;-2.094;2023-03-01T10:10:20;101609.96;;;24.50;18.78
73242;BME280;65659;49.234;-2.094;2023-03-01T10:12:40;101604.62;;;24.47;18.83
73242;BME280;65659;49.234;-2.094;2023-03-01T10:15:07;101607.76;;;24.45;18.83
73242;BME280;65659;49.234;-2.094;2023-03-01T10:17:35;101608.31;;;24.46;18.82
73242;BME280;65659;49.234;-2.094;2023-03-01T10:19:53;101610.64;;;24.45;18.77
73242;BME280;65659;49.234;-2.094;2023-03-01T10:22:21;101607.73;;;24.42;18.80
73242;BME280;65659;49.234;-2.094;2023-03-01T10:24:46;101612.36;;;24.33;18.83
73242;BME280;65659;49.234;-2.094;2023-03-01T10:27:17;101605.05;;;24.84;18.81
73242;BME280;65659;49.234;-2.094;2023-03-01T10:29:44;101606.28;;;24.35;18.81
73242;BME280;65659;49.234;-2.094;2023-03-01T10:32:05;101604.63;;;24.59;18.80
73242;BME280;65659;49.234;-2.094;2023-03-01T10:34:30;101599.33;;;24.39;18.75
73242;BME280;65659;49.234;-2.094;2023-03-01T10:36:58;101601.47;;;24.38;18.74
73242;BME280;65659;49.234;-2.094;2023-03-01T10:39:20;101590.67;;;24.42;18.70
73242;BME280;65659;49.234;-2.094;2023-03-01T10:41:56;101593.34;;;24.93;18.68
73242;BME280;65659;49.234;-2.094;2023-03-01T10:44:34;101590.78;;;24.38;18.65
73242;BME280;65659;49.234;-2.094;2023-03-01T10:46:37;101589.29;;;24.82;18.68
73242;BME280;65659;49.234;-2.094;2023-03-01T10:51:28;101582.36;;;24.52;18.67
73242;BME280;65659;49.234;-2.094;2023-03-01T10:53:54;101580.90;;;24.25;18.73
73242;BME280;65659;49.234;-2.094;2023-03-01T10:56:19;101586.03;;;24.74;18.78
73242;BME280;65659;49.234;-2.094;2023-03-01T11:03:38;101567.58;;;24.52;18.74
73242;BME280;65659;49.234;-2.094;2023-03-01T11:06:12;101568.72;;;24.58;18.71
73242;BME280;65659;49.234;-2.094;2023-03-01T11:08:36;101569.62;;;24.63;18.73
73242;BME280;65659;49.234;-2.094;2023-03-01T11:11:05;101561.78;;;24.47;19.06
73242;BME280;65659;49.234;-2.094;2023-03-01T11:13:20;101556.49;;;24.31;18.99
73242;BME280;65659;49.234;-2.094;2023-03-01T11:18:18;101548.25;;;24.54;19.09
73242;BME280;65659;49.234;-2.094;2023-03-01T11:20:37;101549.50;;;24.60;19.04
73242;BME280;65659;49.234;-2.094;2023-03-01T11:23:05;101540.06;;;24.89;19.16
73242;BME280;65659;49.234;-2.094;2023-03-01T11:25:31;101543.15;;;24.61;19.30
73242;BME280;65659;49.234;-2.094;2023-03-01T11:27:55;101542.35;;;24.66;19.15
73242;BME280;65659;49.234;-2.094;2023-03-01T11:30:23;101539.56;;;24.68;19.14
73242;BME280;65659;49.234;-2.094;2023-03-01T11:32:48;101532.85;;;24.74;19.25
73242;BME280;65659;49.234;-2.094;2023-03-01T11:35:16;101529.09;;;24.62;19.47
73242;BME280;65659;49.234;-2.094;2023-03-01T11:37:44;101530.09;;;24.94;19.41
73242;BME280;65659;49.234;-2.094;2023-03-01T11:40:11;101530.40;;;24.54;19.40
73242;BME280;65659;49.234;-2.094;2023-03-01T11:42:37;101533.39;;;24.54;19.34
73242;BME280;65659;49.234;-2.094;2023-03-01T11:44:56;101532.70;;;24.52;19.39
73242;BME280;65659;49.234;-2.094;2023-03-01T11:47:30;101532.84;;;24.86;19.32
73242;BME280;65659;49.234;-2.094;2023-03-01T11:52:20;101538.42;;;24.43;19.47
73242;BME280;65659;49.234;-2.094;2023-03-01T11:54:47;101532.53;;;24.98;19.25
73242;BME280;65659;49.234;-2.094;2023-03-01T11:57:11;101531.51;;;24.69;19.67
73242;BME280;65659;49.234;-2.094;2023-03-01T12:04:32;101515.62;;;24.82;19.72
73242;BME280;65659;49.234;-2.094;2023-03-01T12:06:50;101513.21;;;24.82;19.57
73242;BME280;65659;49.234;-2.094;2023-03-01T12:09:23;101511.24;;;24.81;19.74
73242;BME280;65659;49.234;-2.094;2023-03-01T12:11:48;101501.94;;;24.80;19.84
73242;BME280;65659;49.234;-2.094;2023-03-01T12:14:15;101500.49;;;24.79;19.84
73242;BME280;65659;49.234;-2.094;2023-03-01T12:16:39;101497.51;;;24.86;19.66
73242;BME280;65659;49.234;-2.094;2023-03-01T12:19:08;101498.44;;;24.91;19.77
73242;BME280;65659;49.234;-2.094;2023-03-01T12:21:29;101494.53;;;24.91;19.69
73242;BME280;65659;49.234;-2.094;2023-03-01T12:24:05;101486.34;;;24.82;19.72
73242;BME280;65659;49.234;-2.094;2023-03-01T12:26:29;101482.12;;;24.93;19.55
73242;BME280;65659;49.234;-2.094;2023-03-01T12:28:51;101479.00;;;24.91;19.51
73242;BME280;65659;49.234;-2.094;2023-03-01T12:31:16;101471.11;;;24.89;19.69
73242;BME280;65659;49.234;-2.094;2023-03-01T12:33:36;101476.48;;;24.92;19.56
73242;BME280;65659;49.234;-2.094;2023-03-01T12:36:10;101467.92;;;24.93;19.47
73242;BME280;65659;49.234;-2.094;2023-03-01T12:40:58;101466.71;;;24.93;19.55
73242;BME280;65659;49.234;-2.094;2023-03-01T12:43:22;101460.93;;;24.90;19.60
73242;BME280;65659;49.234;-2.094;2023-03-01T12:45:48;101459.22;;;24.90;19.52
73242;BME280;65659;49.234;-2.094;2023-03-01T12:48:17;101455.26;;;24.94;19.49
73242;BME280;65659;49.234;-2.094;2023-03-01T12:50:36;101456.06;;;24.90;19.45
73242;BME280;65659;49.234;-2.094;2023-03-01T12:52:58;101449.84;;;24.69;19.43
73242;BME280;65659;49.234;-2.094;2023-03-01T12:55:29;101443.44;;;24.99;19.23
73242;BME280;65659;49.234;-2.094;2023-03-01T12:57:51;101449.21;;;24.97;19.23